createdAt,value
2023-04-06T00:00:11.212Z,4.80
2023-04-06T00:03:16.098Z,5.00
2023-04-06T00:05:45.112Z,4.50
2023-04-06T00:08:13.925Z,7.90
2023-04-06T00:10:42.701Z,6.00
2023-04-06T00:13:11.617Z,6.00
2023-04-06T00:15:40.503Z,5.00
2023-04-06T00:18:09.390Z,6.20
2023-04-06T00:20:38.343Z,6.90
2023-04-06T00:23:07.187Z,4.30
2023-04-06T00:25:35.836Z,4.00
2023-04-06T00:28:04.767Z,6.20
2023-04-06T00:30:33.504Z,5.10
2023-04-06T00:33:02.253Z,8.10
2023-04-06T00:35:31.609Z,4.50
2023-04-06T00:38:00.414Z,6.40
2023-04-06T00:40:29.615Z,5.80
2023-04-06T00:42:58.372Z,4.40
2023-04-06T00:45:27.145Z,7.20
2023-04-06T00:47:56.124Z,5.80
2023-04-06T00:50:24.863Z,5.20
2023-04-06T00:52:53.940Z,7.60
2023-04-06T00:55:22.665Z,8.50
2023-04-06T00:57:51.891Z,9.90
2023-04-06T01:00:20.706Z,5.80
2023-04-06T01:02:50.113Z,7.50
2023-04-06T01:05:18.839Z,9.10
2023-04-06T01:07:47.586Z,8.10
2023-04-06T01:10:26.005Z,8.90
2023-04-06T01:12:54.766Z,9.70
2023-04-06T01:15:24.414Z,8.80
2023-04-06T01:17:53.601Z,6.30
2023-04-06T01:20:22.333Z,8.80
2023-04-06T01:22:51.157Z,6.80
2023-04-06T01:25:19.867Z,7.90
2023-04-06T01:27:48.586Z,10.20
2023-04-06T01:30:18.363Z,6.20
2023-04-06T01:32:47.111Z,10.90
2023-04-06T01:35:16.666Z,8.40
2023-04-06T01:37:45.749Z,6.30
2023-04-06T01:40:14.958Z,5.40
2023-04-06T01:42:44.176Z,6.90
2023-04-06T01:45:13.038Z,6.50
2023-04-06T01:47:42.112Z,6.70
2023-04-06T01:50:11.213Z,7.30
2023-04-06T01:52:40.176Z,7.60
2023-04-06T01:55:08.984Z,5.70
2023-04-06T01:57:37.728Z,6.30
2023-04-06T02:00:06.867Z,7.50
2023-04-06T02:02:35.766Z,9.00
2023-04-06T02:05:04.714Z,5.40
2023-04-06T02:07:33.462Z,10.30
2023-04-06T02:10:02.133Z,6.60
2023-04-06T02:12:31.019Z,6.90
2023-04-06T02:14:59.755Z,7.10
2023-04-06T02:17:28.499Z,8.60
2023-04-06T02:19:57.214Z,6.70
2023-04-06T02:22:25.979Z,6.50
2023-04-06T02:24:54.679Z,5.80
2023-04-06T02:27:23.634Z,7.20
2023-04-06T02:29:52.323Z,6.50
2023-04-06T02:32:21.198Z,5.70
2023-04-06T02:34:49.912Z,5.70
2023-04-06T02:37:18.601Z,5.50
2023-04-06T02:39:47.808Z,6.30
2023-04-06T02:42:16.665Z,6.60
2023-04-06T02:44:45.819Z,7.90
2023-04-06T02:47:14.602Z,7.80
2023-04-06T02:49:43.342Z,10.00
2023-04-06T02:52:12.286Z,9.60
2023-04-06T02:54:41.064Z,12.90
2023-04-06T02:57:09.760Z,12.50
2023-04-06T02:59:38.631Z,12.30
2023-04-06T03:02:07.331Z,10.90
2023-04-06T03:04:36.090Z,11.40
2023-04-06T03:07:04.890Z,10.70
2023-04-06T03:09:33.654Z,10.40
2023-04-06T03:12:02.812Z,15.00
2023-04-06T03:14:31.628Z,11.40
2023-04-06T03:17:00.555Z,10.90
2023-04-06T03:19:29.249Z,8.20
2023-04-06T03:21:57.907Z,9.40
2023-04-06T03:24:26.717Z,9.20
2023-04-06T03:26:56.136Z,7.90
2023-04-06T03:29:24.815Z,8.10
2023-04-06T03:31:53.539Z,9.80
2023-04-06T03:34:22.327Z,6.70
2023-04-06T03:36:59.788Z,8.30
2023-04-06T03:39:31.786Z,9.60
2023-04-06T03:42:00.486Z,7.00
2023-04-06T03:44:29.171Z,8.40
2023-04-06T03:46:58.469Z,6.80
2023-04-06T03:49:27.250Z,8.20
2023-04-06T03:51:57.560Z,5.40
2023-04-06T03:54:26.419Z,6.80
2023-04-06T03:56:56.191Z,6.50
2023-04-06T03:59:24.988Z,7.10
2023-04-06T04:01:54.448Z,6.40
2023-04-06T04:04:23.225Z,7.60
2023-04-06T04:06:51.976Z,7.60
2023-04-06T04:09:20.743Z,5.40
2023-04-06T04:11:49.516Z,7.30
2023-04-06T04:14:18.233Z,7.00
2023-04-06T04:16:47.062Z,5.80
2023-04-06T04:19:15.932Z,6.50
2023-04-06T04:21:46.168Z,8.60
2023-04-06T04:24:15.073Z,7.00
2023-04-06T04:26:43.998Z,7.50
2023-04-06T04:29:12.890Z,7.10
2023-04-06T04:31:41.718Z,9.70
2023-04-06T04:34:10.509Z,8.70
2023-04-06T04:36:39.272Z,10.00
2023-04-06T04:39:08.252Z,7.50
2023-04-06T04:41:37.132Z,8.00
2023-04-06T04:44:05.909Z,7.00
2023-04-06T04:46:34.601Z,7.10
2023-04-06T04:49:03.358Z,6.80
2023-04-06T04:51:33.697Z,8.20
2023-04-06T04:54:02.405Z,10.80
2023-04-06T04:56:31.205Z,7.10
2023-04-06T04:59:00.026Z,6.90
2023-04-06T05:01:28.854Z,9.80
2023-04-06T05:03:57.587Z,6.40
2023-04-06T05:06:26.653Z,10.50
2023-04-06T05:08:55.354Z,10.70
2023-04-06T05:11:24.389Z,11.60
2023-04-06T05:13:53.225Z,5.80
2023-04-06T05:16:22.107Z,9.80
2023-04-06T05:18:51.451Z,7.20
2023-04-06T05:21:20.366Z,11.70
2023-04-06T05:23:49.102Z,11.40
2023-04-06T05:26:17.793Z,9.10
2023-04-06T05:28:47.108Z,7.90
2023-04-06T05:31:17.301Z,8.40
2023-04-06T05:33:46.032Z,7.70
2023-04-06T05:36:15.316Z,6.80
2023-04-06T05:38:44.268Z,6.30
2023-04-06T05:41:12.965Z,7.50
2023-04-06T05:43:43.030Z,7.60
2023-04-06T05:46:11.803Z,9.20
2023-04-06T05:48:40.536Z,10.50
2023-04-06T05:51:09.245Z,10.50
2023-04-06T05:53:38.114Z,8.90
2023-04-06T05:56:07.410Z,6.00
2023-04-06T05:58:36.374Z,7.70
2023-04-06T06:01:05.905Z,7.10
2023-04-06T06:03:34.880Z,6.70
2023-04-06T06:06:05.382Z,6.20
2023-04-06T06:08:35.203Z,14.60
2023-04-06T06:11:04.338Z,8.20
2023-04-06T06:13:33.211Z,6.60
2023-04-06T06:16:06.170Z,8.50
2023-04-06T06:18:35.379Z,9.00
2023-04-06T06:21:05.030Z,37.60
2023-04-06T06:23:33.877Z,7.10
2023-04-06T06:26:02.762Z,5.80
2023-04-06T06:28:31.791Z,5.00
2023-04-06T06:31:01.142Z,16.70
2023-04-06T06:33:29.889Z,6.00
2023-04-06T06:35:58.648Z,9.00
2023-04-06T06:38:27.434Z,5.50
2023-04-06T06:40:56.395Z,10.00
2023-04-06T06:43:25.110Z,7.20
2023-04-06T06:45:53.935Z,6.20
2023-04-06T06:48:22.665Z,3.90
2023-04-06T06:50:51.495Z,12.20
2023-04-06T06:53:20.839Z,8.30
2023-04-06T06:55:52.367Z,6.10
2023-04-06T06:58:21.642Z,3.20
2023-04-06T07:00:50.464Z,5.40
2023-04-06T07:03:19.268Z,8.50
2023-04-06T07:05:54.453Z,5.70
2023-04-06T07:08:24.114Z,10.10
2023-04-06T07:10:53.827Z,4.10
2023-04-06T07:13:23.522Z,3.50
2023-04-06T07:15:53.578Z,3.70
2023-04-06T07:18:23.342Z,3.80
2023-04-06T07:20:52.317Z,4.10
2023-04-06T07:23:21.320Z,3.40
2023-04-06T07:25:52.123Z,5.10
2023-04-06T07:28:21.065Z,3.10
2023-04-06T07:30:49.855Z,2.60
2023-04-06T07:33:18.628Z,2.90
2023-04-06T07:35:47.670Z,2.10
2023-04-06T07:38:17.046Z,4.60
2023-04-06T07:40:45.805Z,3.90
2023-04-06T07:43:14.858Z,6.30
2023-04-06T07:45:43.665Z,6.10
2023-04-06T07:48:13.806Z,5.90
2023-04-06T07:50:43.214Z,3.00
2023-04-06T07:53:12.252Z,3.90
2023-04-06T07:55:41.047Z,5.30
2023-04-06T07:58:09.764Z,4.70
2023-04-06T08:00:38.560Z,2.70
2023-04-06T08:03:08.254Z,6.90
2023-04-06T08:05:37.185Z,3.60
2023-04-06T08:08:06.264Z,2.50
2023-04-06T08:10:35.852Z,5.60
2023-04-06T08:13:04.575Z,7.00
2023-04-06T08:15:33.348Z,3.00
2023-04-06T08:18:02.087Z,3.30
2023-04-06T08:20:31.104Z,3.10
2023-04-06T08:22:59.824Z,8.30
2023-04-06T08:25:28.609Z,3.20
2023-04-06T08:27:57.376Z,2.20
2023-04-06T08:30:26.104Z,3.50
2023-04-06T08:32:54.900Z,2.60
2023-04-06T08:35:23.715Z,3.10
2023-04-06T08:37:52.520Z,3.30
2023-04-06T08:40:21.620Z,3.30
2023-04-06T08:42:55.274Z,2.90
2023-04-06T08:45:24.149Z,5.30
2023-04-06T08:47:53.604Z,3.80
2023-04-06T08:50:25.079Z,4.60
2023-04-06T08:52:54.023Z,2.60
2023-04-06T08:55:23.592Z,4.00
2023-04-06T08:57:55.877Z,3.10
2023-04-06T09:00:26.268Z,2.70
2023-04-06T09:02:56.061Z,7.00
2023-04-06T09:05:26.720Z,10.60
2023-04-06T09:07:55.515Z,6.40
2023-04-06T09:10:26.132Z,6.50
2023-04-06T09:13:03.599Z,4.00
2023-04-06T09:15:33.221Z,4.70
2023-04-06T09:18:02.313Z,3.40
2023-04-06T09:20:31.157Z,4.80
2023-04-06T09:23:00.527Z,4.50
2023-04-06T09:25:29.524Z,4.80
2023-04-06T09:28:02.669Z,4.40
2023-04-06T09:30:31.689Z,6.30
2023-04-06T09:33:00.986Z,4.20
2023-04-06T09:35:32.313Z,5.00
2023-04-06T09:38:11.297Z,7.10
2023-04-06T09:40:59.671Z,4.70
2023-04-06T09:43:29.567Z,4.40
2023-04-06T09:45:59.770Z,4.70
2023-04-06T09:48:29.868Z,5.00
2023-04-06T09:51:01.076Z,3.60
2023-04-06T09:53:31.383Z,3.00
2023-04-06T09:56:03.408Z,6.50
2023-04-06T09:58:36.050Z,4.80
2023-04-06T10:01:09.302Z,4.40
2023-04-06T10:03:43.288Z,5.60
2023-04-06T10:06:12.530Z,4.50
2023-04-06T10:08:42.466Z,6.20
2023-04-06T10:11:12.184Z,4.30
2023-04-06T10:13:41.016Z,4.90
2023-04-06T10:16:09.991Z,5.20
2023-04-06T10:18:40.545Z,5.90
2023-04-06T10:21:17.026Z,7.60
2023-04-06T10:23:53.313Z,5.10
2023-04-06T10:26:22.517Z,3.90
2023-04-06T10:28:51.949Z,4.80
2023-04-06T10:31:28.453Z,3.50
2023-04-06T10:33:58.305Z,4.20
2023-04-06T10:36:28.621Z,4.90
2023-04-06T10:39:01.019Z,4.50
2023-04-06T10:41:33.961Z,3.50
2023-04-06T10:44:03.459Z,4.50
2023-04-06T10:46:33.239Z,3.00
2023-04-06T10:49:13.159Z,5.20
2023-04-06T10:51:41.995Z,9.00
2023-04-06T10:54:12.051Z,6.30
2023-04-06T10:56:41.046Z,6.40
2023-04-06T10:59:09.796Z,7.10
2023-04-06T11:01:38.628Z,7.50
2023-04-06T11:04:09.596Z,5.30
2023-04-06T11:06:39.744Z,4.80
2023-04-06T11:09:09.853Z,4.70
2023-04-06T11:11:40.102Z,5.30
2023-04-06T11:14:10.743Z,8.40
2023-04-06T11:16:39.542Z,4.20
2023-04-06T11:19:09.015Z,4.80
2023-04-06T11:21:40.544Z,4.60
2023-04-06T11:24:09.710Z,4.10
2023-04-06T11:26:47.600Z,8.00
2023-04-06T11:29:17.175Z,5.20
2023-04-06T11:31:48.996Z,4.00
2023-04-06T11:34:21.651Z,4.00
2023-04-06T11:36:55.931Z,3.70
2023-04-06T11:39:25.854Z,3.00
2023-04-06T11:41:55.490Z,3.50
2023-04-06T11:44:50.610Z,4.40
2023-04-06T11:47:20.008Z,5.50
2023-04-06T11:49:48.875Z,5.00
2023-04-06T11:52:25.363Z,5.90
2023-04-06T11:54:55.150Z,3.40
2023-04-06T11:57:29.026Z,4.60
2023-04-06T11:59:57.752Z,3.50
2023-04-06T12:02:27.207Z,3.20
2023-04-06T12:04:56.036Z,3.20
2023-04-06T12:07:24.838Z,4.10
2023-04-06T12:09:53.724Z,4.20
2023-04-06T12:12:22.439Z,3.60
2023-04-06T12:14:51.279Z,4.70
2023-04-06T12:17:21.375Z,5.40
2023-04-06T12:19:50.506Z,4.50
2023-04-06T12:22:19.303Z,4.10
2023-04-06T12:24:48.112Z,3.90
2023-04-06T12:27:16.835Z,4.10
2023-04-06T12:29:46.157Z,4.90
2023-04-06T12:32:14.927Z,4.90
2023-04-06T12:34:44.244Z,4.60
2023-04-06T12:37:12.905Z,5.40
2023-04-06T12:39:41.644Z,5.20
2023-04-06T12:42:11.262Z,4.10
2023-04-06T12:44:40.280Z,5.10
2023-04-06T12:47:09.094Z,5.40
2023-04-06T12:49:37.884Z,5.80
2023-04-06T12:52:06.595Z,4.10
2023-04-06T12:54:35.592Z,5.50
2023-04-06T12:57:04.291Z,5.00
2023-04-06T12:59:36.457Z,3.20
2023-04-06T13:02:05.953Z,6.50
2023-04-06T13:04:34.737Z,7.80
2023-04-06T13:07:03.474Z,9.00
2023-04-06T13:09:32.175Z,6.40
2023-04-06T13:12:02.508Z,4.60
2023-04-06T13:14:32.328Z,4.50
2023-04-06T13:17:01.259Z,4.90
2023-04-06T13:19:30.030Z,5.80
2023-04-06T13:21:59.413Z,5.10
2023-04-06T13:24:28.229Z,3.80
2023-04-06T13:26:56.943Z,4.70
2023-04-06T13:29:27.111Z,5.10
2023-04-06T13:31:55.961Z,6.30
2023-04-06T13:34:25.174Z,6.80
2023-04-06T13:36:53.998Z,5.10
2023-04-06T13:39:22.790Z,7.00
2023-04-06T13:41:51.545Z,6.70
2023-04-06T13:44:21.539Z,7.40
2023-04-06T13:46:50.729Z,6.60
2023-04-06T13:49:19.424Z,5.70
2023-04-06T13:51:48.144Z,6.60
2023-04-06T13:54:17.640Z,5.50
2023-04-06T13:56:46.419Z,3.90
2023-04-06T13:59:15.730Z,6.00
2023-04-06T14:01:44.597Z,3.50
2023-04-06T14:04:13.397Z,5.80
2023-04-06T14:06:42.286Z,5.50
2023-04-06T14:09:11.054Z,4.90
2023-04-06T14:11:39.905Z,5.00
2023-04-06T14:14:08.620Z,7.00
2023-04-06T14:16:37.476Z,7.10
2023-04-06T14:19:06.345Z,9.30
2023-04-06T14:21:35.156Z,10.90
2023-04-06T14:24:04.076Z,7.90
2023-04-06T14:26:33.192Z,6.80
2023-04-06T14:29:02.203Z,5.90
2023-04-06T14:31:31.339Z,7.00
2023-04-06T14:34:02.273Z,6.50
2023-04-06T14:36:38.880Z,9.40
2023-04-06T14:39:08.335Z,7.40
2023-04-06T14:41:37.064Z,6.50
2023-04-06T14:44:07.281Z,7.60
2023-04-06T14:46:36.281Z,6.40
2023-04-06T14:49:05.547Z,6.70
2023-04-06T14:51:35.068Z,7.90
2023-04-06T14:54:04.230Z,5.60
2023-04-06T14:56:33.015Z,6.00
2023-04-06T14:59:05.750Z,5.40
2023-04-06T15:01:35.572Z,5.10
2023-04-06T15:04:05.078Z,5.60
2023-04-06T15:06:33.869Z,6.60
2023-04-06T15:09:03.667Z,6.00
2023-04-06T15:11:32.361Z,8.30
2023-04-06T15:14:01.158Z,7.30
2023-04-06T15:16:33.446Z,4.50
2023-04-06T15:19:03.038Z,5.30
2023-04-06T15:21:32.233Z,4.90
2023-04-06T15:24:01.012Z,6.90
2023-04-06T15:26:30.784Z,6.10
2023-04-06T15:29:01.069Z,5.20
2023-04-06T15:31:37.590Z,5.60
2023-04-06T15:34:10.249Z,6.20
2023-04-06T15:36:39.011Z,7.10
2023-04-06T15:39:09.890Z,7.40
2023-04-06T15:41:38.987Z,5.90
2023-04-06T15:44:07.773Z,10.80
2023-04-06T15:46:36.774Z,11.90
2023-04-06T15:49:05.544Z,9.60
2023-04-06T15:51:34.698Z,7.50
2023-04-06T15:54:03.422Z,6.20
2023-04-06T15:56:35.085Z,5.60
2023-04-06T15:59:04.531Z,6.80
2023-04-06T16:01:33.335Z,6.90
2023-04-06T16:04:02.484Z,7.80
2023-04-06T16:06:32.599Z,6.40
2023-04-06T16:09:01.979Z,8.30
2023-04-06T16:11:32.328Z,7.60
2023-04-06T16:14:01.235Z,7.30
2023-04-06T16:16:30.088Z,5.70
2023-04-06T16:18:58.932Z,8.00
2023-04-06T16:21:28.042Z,6.60
2023-04-06T16:23:58.503Z,11.60
2023-04-06T16:26:28.776Z,10.00
2023-04-06T16:28:58.258Z,9.30
2023-04-06T16:31:27.227Z,7.40
2023-04-06T16:33:56.944Z,7.10
2023-04-06T16:36:27.710Z,8.50
2023-04-06T16:38:57.326Z,8.50
2023-04-06T16:41:27.615Z,8.70
2023-04-06T16:43:57.563Z,6.50
2023-04-06T16:46:30.791Z,8.60
2023-04-06T16:51:28.376Z,7.20
2023-04-06T16:53:57.098Z,11.20
2023-04-06T16:56:26.066Z,7.00
2023-04-06T16:58:54.769Z,9.80
2023-04-06T17:01:25.510Z,10.40
2023-04-06T17:03:55.155Z,59.00
2023-04-06T17:06:24.069Z,202.90
2023-04-06T17:08:54.048Z,101.20
2023-04-06T17:11:28.652Z,39.60
2023-04-06T17:14:01.539Z,43.90
2023-04-06T17:16:30.450Z,11.10
2023-04-06T17:18:59.225Z,10.10
2023-04-06T17:21:28.094Z,8.40
2023-04-06T17:23:56.788Z,8.70
2023-04-06T17:26:25.636Z,11.70
2023-04-06T17:28:54.403Z,10.70
2023-04-06T17:31:23.161Z,9.00
2023-04-06T17:33:51.960Z,9.60
2023-04-06T17:36:22.245Z,7.30
2023-04-06T17:38:50.946Z,7.80
2023-04-06T17:41:19.781Z,8.40
2023-04-06T17:43:48.806Z,8.30
2023-04-06T17:46:17.900Z,8.20
2023-04-06T17:48:47.784Z,10.20
2023-04-06T17:51:19.367Z,9.00
2023-04-06T17:53:48.177Z,9.00
2023-04-06T17:56:17.162Z,10.50
2023-04-06T17:58:45.938Z,8.20
2023-04-06T18:01:14.830Z,10.20
2023-04-06T18:03:43.676Z,7.80
2023-04-06T18:06:16.339Z,8.60
2023-04-06T18:08:45.178Z,7.60
2023-04-06T18:11:18.332Z,7.10
2023-04-06T18:13:47.522Z,6.20
2023-04-06T18:16:21.178Z,6.60
2023-04-06T18:18:50.400Z,8.00
2023-04-06T18:21:19.181Z,8.10
2023-04-06T18:23:48.137Z,7.60
2023-04-06T18:26:18.098Z,11.00
2023-04-06T18:28:47.443Z,8.00
2023-04-06T18:31:16.654Z,9.40
2023-04-06T18:33:46.840Z,6.90
2023-04-06T18:36:15.696Z,7.90
2023-04-06T18:38:45.465Z,15.30
2023-04-06T18:41:14.694Z,8.90
2023-04-06T18:43:43.510Z,14.30
2023-04-06T18:46:16.356Z,17.60
2023-04-06T18:48:45.326Z,12.10
2023-04-06T18:51:14.170Z,16.60
2023-04-06T18:53:43.154Z,16.40
2023-04-06T18:56:15.803Z,15.60
2023-04-06T18:58:45.514Z,10.40
2023-04-06T19:01:45.813Z,12.50
2023-04-06T19:04:14.938Z,11.20
2023-04-06T19:06:43.933Z,12.10
2023-04-06T19:09:12.782Z,12.30
2023-04-06T19:11:41.549Z,8.00
2023-04-06T19:14:10.540Z,8.60
2023-04-06T19:16:42.544Z,9.80
2023-04-06T19:19:11.633Z,9.00
2023-04-06T19:21:40.387Z,9.80
2023-04-06T19:24:11.635Z,10.10
2023-04-06T19:26:40.945Z,9.20
2023-04-06T19:29:09.963Z,9.60
2023-04-06T19:31:38.754Z,7.30
2023-04-06T19:34:08.257Z,7.60
2023-04-06T19:36:37.047Z,7.80
2023-04-06T19:39:05.918Z,8.10
2023-04-06T19:41:34.652Z,10.30
2023-04-06T19:44:03.356Z,7.90
2023-04-06T19:46:32.137Z,10.90
2023-04-06T19:49:01.420Z,11.30
2023-04-06T19:51:33.667Z,7.50
2023-04-06T19:54:03.350Z,7.60
2023-04-06T19:56:32.209Z,8.30
2023-04-06T19:59:01.142Z,7.70
2023-04-06T20:01:29.890Z,7.10
2023-04-06T20:03:58.887Z,6.50
2023-04-06T20:06:29.398Z,6.60
2023-04-06T20:08:58.187Z,5.30
2023-04-06T20:11:27.332Z,10.00
2023-04-06T20:13:56.188Z,10.00
2023-04-06T20:16:24.962Z,10.00
2023-04-06T20:18:54.134Z,7.60
2023-04-06T20:21:23.063Z,7.40
2023-04-06T20:23:51.959Z,6.40
2023-04-06T20:26:21.926Z,7.50
2023-04-06T20:28:50.848Z,6.90
2023-04-06T20:31:19.793Z,6.10
2023-04-06T20:33:48.505Z,7.10
2023-04-06T20:36:19.882Z,10.40
2023-04-06T20:38:50.531Z,7.40
2023-04-06T20:41:19.327Z,7.10
2023-04-06T20:43:48.242Z,6.10
2023-04-06T20:46:18.318Z,7.50
2023-04-06T20:48:47.166Z,7.20
2023-04-06T20:51:19.587Z,7.40
2023-04-06T20:53:48.742Z,7.50
2023-04-06T20:56:17.511Z,7.60
2023-04-06T20:58:46.930Z,7.80
2023-04-06T21:01:16.566Z,8.10
2023-04-06T21:03:45.458Z,9.00
2023-04-06T21:06:14.412Z,9.40
2023-04-06T21:08:43.167Z,9.50
2023-04-06T21:11:11.943Z,7.80
2023-04-06T21:13:40.631Z,9.40
2023-04-06T21:16:10.405Z,8.30
2023-04-06T21:18:39.352Z,9.70
2023-04-06T21:21:08.032Z,8.20
2023-04-06T21:23:36.983Z,9.60
2023-04-06T21:26:06.102Z,8.40
2023-04-06T21:28:35.047Z,10.40
2023-04-06T21:31:06.590Z,10.60
2023-04-06T21:33:35.612Z,12.90
2023-04-06T21:36:08.078Z,13.80
2023-04-06T21:38:36.897Z,11.10
2023-04-06T21:41:07.256Z,9.50
2023-04-06T21:43:36.029Z,12.50
2023-04-06T21:46:05.116Z,9.00
2023-04-06T21:48:33.877Z,8.70
2023-04-06T21:51:02.952Z,12.00
2023-04-06T21:53:31.840Z,9.90
2023-04-06T21:56:00.977Z,11.80
2023-04-06T21:58:29.686Z,8.40
2023-04-06T22:00:58.719Z,8.90
2023-04-06T22:03:28.151Z,13.70
2023-04-06T22:05:57.128Z,10.30
2023-04-06T22:08:33.604Z,9.50
2023-04-06T22:11:07.823Z,12.50
2023-04-06T22:13:37.048Z,10.20
2023-04-06T22:16:06.649Z,10.10
2023-04-06T22:18:37.377Z,10.90
2023-04-06T22:21:08.433Z,10.20
2023-04-06T22:23:42.144Z,9.70
2023-04-06T22:26:11.896Z,10.40
2023-04-06T22:28:41.075Z,13.00
2023-04-06T22:31:10.345Z,13.10
2023-04-06T22:33:39.050Z,12.40
2023-04-06T22:36:07.895Z,9.60
2023-04-06T22:38:36.815Z,9.70
2023-04-06T22:41:07.207Z,10.20
2023-04-06T22:43:37.496Z,11.30
2023-04-06T22:46:06.340Z,10.60
2023-04-06T22:48:35.111Z,8.30
2023-04-06T22:51:03.839Z,9.90
2023-04-06T22:53:32.753Z,9.80
2023-04-06T22:56:01.539Z,8.00
2023-04-06T22:58:30.336Z,7.40
2023-04-06T23:00:59.169Z,7.40
2023-04-06T23:03:27.996Z,8.90
2023-04-06T23:05:56.968Z,7.30
2023-04-06T23:08:25.906Z,7.50
2023-04-06T23:10:54.667Z,8.50
2023-04-06T23:13:23.486Z,6.50
2023-04-06T23:15:52.516Z,6.90
2023-04-06T23:18:21.363Z,7.60
2023-04-06T23:20:50.417Z,7.30
2023-04-06T23:23:19.148Z,7.80
2023-04-06T23:25:47.914Z,7.50
2023-04-06T23:28:16.801Z,6.90
2023-04-06T23:30:45.557Z,6.20
2023-04-06T23:33:14.478Z,6.20
2023-04-06T23:35:43.419Z,6.00
2023-04-06T23:38:12.162Z,8.00
2023-04-06T23:40:41.096Z,8.90
2023-04-06T23:43:09.815Z,7.30
2023-04-06T23:45:42.457Z,8.90
2023-04-06T23:48:11.493Z,8.20
2023-04-06T23:50:41.017Z,10.10
2023-04-06T23:53:09.842Z,7.40
2023-04-06T23:55:38.671Z,9.80
2023-04-06T23:58:07.419Z,7.20
